Time;durP1;ratioP1;P1;durP2;ratioP2;P2;SDS_P1;SDS_P2;PMS_P1;PMS_P2;Temp;Humidity;BMP_temperature;BMP_pressure;BME280_temperature;BME280_humidity;BME280_pressure;Samples;Min_cycle;Max_cycle;Signal;HPM_P1;HPM_P2
2022/05/02 00:02:24;;;;;;;13.13;11.90;;;10.20;99.90;;;;;;5063218;28;20263;-68
2022/05/02 00:04:50;;;;;;;13.80;11.93;;;10.20;99.90;;;;;;5083684;28;20203;-68
2022/05/02 00:07:16;;;;;;;13.33;11.80;;;10.30;99.90;;;;;;5085149;28;20181;-67
2022/05/02 00:09:42;;;;;;;14.07;12.50;;;10.30;99.90;;;;;;5086509;28;20633;-67
2022/05/02 00:12:08;;;;;;;14.70;13.10;;;10.30;99.90;;;;;;5088826;28;20474;-68
2022/05/02 00:14:33;;;;;;;14.27;11.63;;;10.30;99.90;;;;;;5083588;28;20452;-68
2022/05/02 00:16:59;;;;;;;13.90;12.50;;;10.30;99.90;;;;;;5076598;28;20404;-68
2022/05/02 00:19:24;;;;;;;15.20;12.23;;;10.30;99.90;;;;;;5075635;28;20173;-68
2022/05/02 00:21:50;;;;;;;14.20;12.70;;;10.30;99.90;;;;;;5079019;28;20193;-67
2022/05/02 00:24:16;;;;;;;14.73;13.13;;;10.30;99.90;;;;;;5087018;28;20664;-68
2022/05/02 00:26:41;;;;;;;14.80;12.90;;;10.10;99.90;;;;;;5093883;28;20556;-67
2022/05/02 00:29:07;;;;;;;14.03;12.47;;;10.10;99.90;;;;;;5093600;28;20185;-66
2022/05/02 00:31:33;;;;;;;19.23;13.30;;;10.10;99.90;;;;;;5092982;28;20220;-68
2022/05/02 00:33:59;;;;;;;14.93;13.27;;;10.10;99.90;;;;;;5092603;28;20179;-68
2022/05/02 00:36:25;;;;;;;15.65;14.05;;;10.00;99.90;;;;;;5087208;28;20402;-68
2022/05/02 00:38:50;;;;;;;15.07;13.30;;;9.80;99.90;;;;;;5075513;28;20256;-71
2022/05/02 00:41:16;;;;;;;14.87;13.37;;;9.80;99.90;;;;;;5074160;28;20463;-66
2022/05/02 00:43:42;;;;;;;16.77;12.77;;;9.80;99.90;;;;;;5074351;28;20398;-68
2022/05/02 00:46:24;;;;;;;13.40;12.10;;;9.80;99.90;;;;;;5074443;28;20241;-68
2022/05/02 00:48:50;;;;;;;16.43;13.10;;;9.80;99.90;;;;;;5074847;28;20259;-70
2022/05/02 00:51:16;;;;;;;14.80;13.30;;;9.80;99.90;;;;;;5073961;28;20470;-67
2022/05/02 00:53:44;;;;;;;14.17;12.77;;;9.80;99.90;;;;;;5074072;28;20964;-70
2022/05/02 00:56:10;;;;;;;14.33;12.17;;;9.80;99.90;;;;;;5074019;28;20454;-69
2022/05/02 00:58:37;;;;;;;14.27;12.30;;;9.80;99.90;;;;;;5074245;28;20408;-69
2022/05/02 01:01:04;;;;;;;13.93;12.50;;;9.90;99.90;;;;;;5073944;28;20177;-69
2022/05/02 01:03:30;;;;;;;14.87;13.27;;;9.90;99.90;;;;;;5073973;28;20406;-68
2022/05/02 01:08:40;;;;;;;14.13;12.43;;;10.00;99.90;;;;;;5074536;28;20557;-69
2022/05/02 01:11:06;;;;;;;14.03;12.53;;;10.00;99.90;;;;;;5074604;28;20470;-69
2022/05/02 01:13:43;;;;;;;13.50;12.10;;;9.90;99.90;;;;;;5074792;28;20219;-69
2022/05/02 01:16:23;;;;;;;13.40;12.00;;;9.90;99.90;;;;;;5074369;28;20541;-69
2022/05/02 01:18:51;;;;;;;13.23;11.93;;;9.90;99.90;;;;;;5073823;28;20399;-70
2022/05/02 01:21:25;;;;;;;15.73;12.80;;;10.00;99.90;;;;;;5073444;28;20423;-69
2022/05/02 01:23:57;;;;;;;18.80;14.40;;;9.90;99.90;;;;;;5073728;28;20494;-69
2022/05/02 01:26:22;;;;;;;18.20;13.73;;;9.70;99.90;;;;;;5056672;28;20619;-69
2022/05/02 01:28:53;;;;;;;14.87;13.27;;;9.50;99.90;;;;;;5075478;28;20412;-69
2022/05/02 01:31:19;;;;;;;15.63;13.60;;;9.50;99.90;;;;;;5075070;28;20657;-69
2022/05/02 01:33:46;;;;;;;15.53;13.73;;;9.50;99.90;;;;;;5074200;28;20861;-69
2022/05/02 01:36:13;;;;;;;16.13;13.03;;;9.60;99.90;;;;;;5073395;28;20528;-69
2022/05/02 01:38:39;;;;;;;13.80;12.27;;;9.70;99.90;;;;;;5073448;28;20422;-69
2022/05/02 01:41:05;;;;;;;14.27;12.00;;;9.80;99.90;;;;;;5072955;28;20464;-69
2022/05/02 01:43:31;;;;;;;14.83;12.70;;;9.90;99.90;;;;;;5055666;28;20472;-69
2022/05/02 01:45:58;;;;;;;14.37;12.90;;;9.90;99.90;;;;;;5073473;28;20415;-68
2022/05/02 01:48:24;;;;;;;13.57;12.27;;;9.90;99.90;;;;;;5073362;28;20280;-69
2022/05/02 01:50:50;;;;;;;14.10;12.67;;;10.00;99.90;;;;;;5072594;28;20944;-70
2022/05/02 01:53:16;;;;;;;12.40;11.10;;;10.10;99.90;;;;;;5072513;28;20259;-68
2022/05/02 01:55:41;;;;;;;12.40;11.17;;;10.10;99.90;;;;;;5072780;28;20193;-69
2022/05/02 01:58:07;;;;;;;14.13;12.63;;;10.20;99.90;;;;;;5072701;28;20433;-69
2022/05/02 02:00:32;;;;;;;14.43;12.43;;;10.20;99.90;;;;;;5072679;28;20404;-69
2022/05/02 02:02:58;;;;;;;15.57;13.80;;;10.20;99.90;;;;;;5072617;28;20205;-69
2022/05/02 02:08:07;;;;;;;14.00;12.47;;;10.20;99.90;;;;;;5073049;28;20176;-68
2022/05/02 02:10:33;;;;;;;13.70;12.20;;;10.20;99.90;;;;;;5072798;28;20404;-69
2022/05/02 02:12:58;;;;;;;13.90;12.60;;;10.20;99.90;;;;;;5072509;28;20204;-69
2022/05/02 02:15:24;;;;;;;14.43;12.43;;;10.20;99.90;;;;;;5073587;28;20206;-69
2022/05/02 02:17:50;;;;;;;15.30;12.63;;;10.20;99.90;;;;;;5072748;28;20230;-69
2022/05/02 02:20:15;;;;;;;15.90;12.73;;;10.20;99.90;;;;;;5071647;28;20170;-69
2022/05/02 02:22:41;;;;;;;14.43;12.87;;;10.30;99.90;;;;;;5072235;28;20193;-69
2022/05/02 02:25:07;;;;;;;13.23;11.80;;;10.30;99.90;;;;;;5072752;28;20523;-69
2022/05/02 02:27:33;;;;;;;15.40;13.80;;;10.30;99.90;;;;;;5072681;28;20408;-70
2022/05/02 02:29:59;;;;;;;14.23;12.73;;;10.30;99.90;;;;;;5072543;28;20408;-69
2022/05/02 02:32:25;;;;;;;14.80;13.30;;;10.30;99.90;;;;;;5072425;28;20219;-69
2022/05/02 02:34:51;;;;;;;14.13;12.63;;;10.30;99.90;;;;;;5054466;28;20454;-70
2022/05/02 02:37:17;;;;;;;13.20;11.67;;;10.30;99.90;;;;;;5072141;28;20423;-69
2022/05/02 02:39:43;;;;;;;15.63;12.97;;;10.30;99.90;;;;;;5072379;28;20176;-69
2022/05/02 02:42:09;;;;;;;13.87;12.37;;;10.30;99.90;;;;;;5054425;28;20447;-69
2022/05/02 02:44:35;;;;;;;13.97;12.47;;;10.30;99.90;;;;;;5072092;28;20412;-68
2022/05/02 02:47:01;;;;;;;14.43;13.00;;;10.30;99.90;;;;;;5072470;28;20414;-69
2022/05/02 02:49:26;;;;;;;13.77;12.37;;;10.30;99.90;;;;;;5071686;28;20184;-68
2022/05/02 02:51:52;;;;;;;16.70;12.43;;;10.30;99.90;;;;;;5072318;28;20803;-69
2022/05/02 02:54:18;;;;;;;13.80;12.40;;;10.30;99.90;;;;;;5072324;28;20665;-70
2022/05/02 02:56:43;;;;;;;14.87;12.80;;;10.30;99.90;;;;;;5072523;28;20200;-69
2022/05/02 02:59:10;;;;;;;14.43;12.53;;;10.30;99.90;;;;;;5071740;28;20243;-68
2022/05/02 03:01:36;;;;;;;14.20;12.77;;;10.30;99.90;;;;;;5084652;22;20293;-72
2022/05/02 03:06:01;;;;;;;15.07;12.70;;;10.30;99.90;;;;;;5097447;28;20402;-72
2022/05/02 03:06:50;;;;;;;18.77;13.43;;;10.20;99.90;;;;;;5096741;28;20420;-72
2022/05/02 03:09:16;;;;;;;15.70;12.47;;;10.20;99.90;;;;;;5093039;28;20392;-72
2022/05/02 03:11:41;;;;;;;13.43;12.10;;;10.30;99.90;;;;;;5104912;28;20418;-73
2022/05/02 03:14:07;;;;;;;12.93;11.63;;;10.30;99.90;;;;;;5118476;28;20184;-72
2022/05/02 03:16:32;;;;;;;13.73;11.70;;;10.30;99.90;;;;;;5097915;28;20662;-73
2022/05/02 03:18:58;;;;;;;13.87;12.37;;;10.30;99.90;;;;;;5104032;28;20689;-72
2022/05/02 03:21:23;;;;;;;12.97;11.73;;;10.30;99.90;;;;;;5099887;28;20188;-74
2022/05/02 03:23:49;;;;;;;15.87;13.10;;;10.30;99.90;;;;;;5095175;28;20480;-73
2022/05/02 03:26:14;;;;;;;14.87;13.17;;;10.30;99.90;;;;;;5095231;28;20173;-73
2022/05/02 03:28:40;;;;;;;14.20;12.80;;;10.20;99.90;;;;;;5096105;28;20169;-73
2022/05/02 03:31:05;;;;;;;14.10;12.60;;;10.30;99.90;;;;;;5095471;28;20217;-73
2022/05/02 03:33:31;;;;;;;20.90;13.80;;;10.30;99.90;;;;;;5095788;28;20717;-75
2022/05/02 03:35:57;;;;;;;15.07;12.70;;;10.30;99.90;;;;;;5095681;28;20309;-74
2022/05/02 03:38:22;;;;;;;15.80;12.03;;;10.30;99.90;;;;;;5094903;28;20202;-74
2022/05/02 03:40:48;;;;;;;15.60;13.10;;;10.20;99.90;;;;;;5095013;28;20161;-73
2022/05/02 03:43:13;;;;;;;11.90;10.70;;;10.30;99.90;;;;;;5094952;28;20547;-73
2022/05/02 03:45:39;;;;;;;15.67;12.77;;;10.20;99.90;;;;;;5095201;28;20175;-71
2022/05/02 03:48:05;;;;;;;13.80;12.40;;;10.30;99.90;;;;;;5095117;28;20165;-72
2022/05/02 03:50:30;;;;;;;13.30;12.10;;;10.30;99.90;;;;;;5095137;28;20161;-72
2022/05/02 03:52:56;;;;;;;14.30;12.80;;;10.40;99.90;;;;;;5095151;28;20798;-73
2022/05/02 03:55:22;;;;;;;14.40;12.47;;;10.40;99.90;;;;;;5095245;28;20192;-72
2022/05/02 03:57:47;;;;;;;14.27;12.60;;;10.40;99.90;;;;;;5094768;28;20165;-72
2022/05/02 04:00:13;;;;;;;14.47;12.30;;;10.40;99.90;;;;;;5094314;28;20452;-72
2022/05/02 04:02:39;;;;;;;15.00;12.30;;;10.40;99.90;;;;;;5094296;28;20207;-71
2022/05/02 04:05:05;;;;;;;13.37;11.97;;;10.40;99.90;;;;;;5093013;28;21009;-72
2022/05/02 04:07:31;;;;;;;15.27;13.43;;;10.40;99.90;;;;;;5094361;28;20766;-71
2022/05/02 04:09:56;;;;;;;16.70;13.30;;;10.40;99.90;;;;;;5086767;28;20442;-72
2022/05/02 04:12:22;;;;;;;15.37;12.60;;;10.40;99.90;;;;;;5087431;28;20588;-72
2022/05/02 04:14:47;;;;;;;15.40;13.53;;;10.50;99.90;;;;;;5075904;28;20292;-73
2022/05/02 04:17:13;;;;;;;16.57;13.23;;;10.40;99.90;;;;;;5075738;28;20225;-73
2022/05/02 04:19:38;;;;;;;17.43;15.63;;;10.50;99.90;;;;;;5088593;28;20212;-72
2022/05/02 04:22:04;;;;;;;16.57;14.77;;;10.30;99.90;;;;;;5084140;28;20959;-73
2022/05/02 04:24:30;;;;;;;19.27;14.73;;;10.20;99.90;;;;;;5079701;28;20874;-73
2022/05/02 04:26:57;;;;;;;16.10;14.10;;;10.20;99.90;;;;;;5074928;28;20766;-73
2022/05/02 04:29:22;;;;;;;16.80;14.20;;;10.10;99.90;;;;;;5086809;28;20534;-73
2022/05/02 04:31:48;;;;;;;16.13;14.33;;;10.00;99.90;;;;;;5104147;28;20450;-73
2022/05/02 04:34:14;;;;;;;17.17;15.20;;;10.00;99.90;;;;;;5087995;28;20212;-73
2022/05/02 04:36:39;;;;;;;18.70;15.87;;;10.10;99.90;;;;;;5087319;28;20637;-72
2022/05/02 04:39:05;;;;;;;19.60;16.07;;;10.20;99.90;;;;;;5089306;28;20538;-73
2022/05/02 04:41:31;;;;;;;17.27;14.50;;;10.20;99.90;;;;;;5088268;28;20196;-73
2022/05/02 04:43:56;;;;;;;16.30;14.53;;;10.10;99.90;;;;;;5088472;28;20283;-74
2022/05/02 04:46:22;;;;;;;18.13;14.30;;;10.10;99.90;;;;;;5088442;28;20441;-73
2022/05/02 04:48:48;;;;;;;16.23;14.47;;;10.20;99.90;;;;;;5090771;28;20633;-71
2022/05/02 04:51:13;;;;;;;15.60;13.30;;;10.30;99.90;;;;;;5090643;28;20201;-73
2022/05/02 04:53:39;;;;;;;21.50;14.60;;;10.40;99.90;;;;;;5089915;28;20689;-74
2022/05/02 04:56:05;;;;;;;17.13;14.70;;;10.50;99.90;;;;;;5090506;28;20208;-73
2022/05/02 04:58:30;;;;;;;17.80;15.47;;;10.50;99.90;;;;;;5090570;28;20216;-72
2022/05/02 05:00:56;;;;;;;19.30;14.97;;;10.60;99.90;;;;;;5089772;28;20169;-72
2022/05/02 05:03:22;;;;;;;18.10;15.73;;;10.70;99.90;;;;;;5091194;28;20645;-72
2022/05/02 05:05:48;;;;;;;17.20;14.60;;;10.70;99.90;;;;;;5093061;28;20173;-72
2022/05/02 05:08:14;;;;;;;16.00;14.40;;;10.70;99.90;;;;;;5093170;28;20513;-72
2022/05/02 05:11:17;;;;;;;18.10;16.07;;;10.80;99.90;;;;;;5092996;28;20805;-72
2022/05/02 05:16:20;;;;;;;20.60;16.30;;;10.80;99.90;;;;;;5091858;28;20410;-73
2022/05/02 05:16:52;;;;;;;23.53;15.83;;;10.80;99.90;;;;;;5093243;28;20419;-73
2022/05/02 05:19:21;;;;;;;18.03;15.67;;;10.80;99.90;;;;;;5093120;28;20414;-72
2022/05/02 05:22:05;;;;;;;19.57;17.40;;;10.80;99.90;;;;;;5093047;28;20430;-73
2022/05/02 05:24:30;;;;;;;17.13;15.33;;;10.80;99.90;;;;;;5093126;28;20399;-73
2022/05/02 05:27:17;;;;;;;19.87;16.03;;;10.80;99.90;;;;;;5092693;28;20395;-73
2022/05/02 05:30:02;;;;;;;17.17;15.33;;;10.90;99.90;;;;;;5092825;28;20193;-73
2022/05/02 05:33:03;;;;;;;19.33;16.43;;;11.00;99.90;;;;;;5092563;28;20509;-73
2022/05/02 05:35:52;;;;;;;18.20;16.27;;;11.00;99.90;;;;;;5092711;28;20453;-72
2022/05/02 05:38:33;;;;;;;21.73;16.50;;;10.90;99.90;;;;;;5092580;28;20402;-71
2022/05/02 05:41:15;;;;;;;18.60;16.77;;;11.00;99.90;;;;;;5092382;28;20453;-73
2022/05/02 05:43:55;;;;;;;18.43;16.47;;;11.00;99.90;;;;;;5093819;28;20834;-74
2022/05/02 05:46:36;;;;;;;18.50;15.73;;;11.00;99.90;;;;;;5093178;28;20435;-72
2022/05/02 05:49:02;;;;;;;18.20;16.23;;;11.10;99.90;;;;;;5092814;28;20490;-72
2022/05/02 05:51:39;;;;;;;19.40;17.23;;;11.10;99.90;;;;;;5092594;28;20462;-72
2022/05/02 05:54:10;;;;;;;18.83;16.67;;;11.10;99.90;;;;;;5092547;28;20419;-71
2022/05/02 05:57:02;;;;;;;19.47;17.37;;;11.20;99.90;;;;;;5092910;28;20416;-72
2022/05/02 05:59:41;;;;;;;19.13;16.90;;;11.10;99.90;;;;;;5092375;28;20392;-72
2022/05/02 06:02:23;;;;;;;18.70;16.20;;;11.10;99.90;;;;;;5092838;28;20927;-74
2022/05/02 06:04:50;;;;;;;19.67;16.97;;;11.20;99.90;;;;;;5091759;28;20415;-72
2022/05/02 06:07:20;;;;;;;18.30;16.40;;;11.20;99.90;;;;;;5092800;28;20491;-71
2022/05/02 06:09:48;;;;;;;17.57;15.80;;;11.30;99.90;;;;;;5091939;28;20845;-71
2022/05/02 06:12:15;;;;;;;19.90;16.50;;;11.40;99.90;;;;;;5092317;28;20923;-71
2022/05/02 06:20:15;;;;;;;20.63;18.52;;;11.40;99.90;;;;;;5091688;28;20522;-72
2022/05/02 06:22:41;;;;;;;19.67;17.40;;;11.30;99.90;;;;;;5093042;28;20272;-72
2022/05/02 06:25:07;;;;;;;19.50;17.43;;;11.30;99.90;;;;;;5091177;28;20911;-72
2022/05/02 06:27:41;;;;;;;19.90;16.53;;;11.40;99.90;;;;;;5092572;28;20436;-72
2022/05/02 06:30:07;;;;;;;18.97;16.70;;;11.50;99.90;;;;;;5091954;28;20775;-73
2022/05/02 06:32:36;;;;;;;17.57;15.17;;;11.60;99.90;;;;;;5090740;28;20570;-72
2022/05/02 06:35:03;;;;;;;17.93;16.03;;;11.70;99.90;;;;;;5092451;28;20442;-72
2022/05/02 06:37:35;;;;;;;16.80;15.20;;;11.90;99.90;;;;;;5078917;28;20815;-71
2022/05/02 06:40:15;;;;;;;17.77;15.87;;;12.00;99.90;;;;;;5088782;28;20449;-71
2022/05/02 06:43:02;;;;;;;18.83;15.50;;;12.10;99.90;;;;;;5095958;28;20486;-72
2022/05/02 06:46:03;;;;;;;17.27;14.73;;;12.20;99.90;;;;;;5086105;28;20529;-72
2022/05/02 06:48:42;;;;;;;17.03;15.23;;;12.30;99.90;;;;;;5086591;28;20455;-72
2022/05/02 06:51:30;;;;;;;16.40;14.67;;;12.50;99.90;;;;;;5096893;28;20529;-72
2022/05/02 06:54:16;;;;;;;15.87;14.17;;;12.60;99.90;;;;;;5094509;28;20853;-71
2022/05/02 06:56:43;;;;;;;18.17;14.37;;;12.70;99.90;;;;;;5098690;28;20441;-71
2022/05/02 06:59:24;;;;;;;17.63;14.13;;;12.80;99.90;;;;;;5103358;28;20445;-72
2022/05/02 07:01:57;;;;;;;15.70;13.97;;;12.90;99.90;;;;;;5089994;28;20550;-75
2022/05/02 07:04:42;;;;;;;20.30;14.23;;;12.90;99.90;;;;;;5080729;28;20439;-71
2022/05/02 07:07:34;;;;;;;15.37;13.00;;;13.00;99.90;;;;;;5098909;28;20767;-71
2022/05/02 07:10:12;;;;;;;13.47;12.10;;;13.20;99.90;;;;;;5102361;28;20424;-71
2022/05/02 07:13:13;;;;;;;15.33;13.50;;;13.30;99.90;;;;;;5077558;28;20930;-71
2022/05/02 07:15:45;;;;;;;16.20;13.37;;;13.40;99.90;;;;;;5077623;28;20461;-71
2022/05/02 07:18:55;;;;;;;13.60;12.20;;;13.50;99.90;;;;;;5077375;28;20407;-71
2022/05/02 07:21:30;;;;;;;13.23;11.83;;;13.70;99.90;;;;;;5076806;28;20470;-72
2022/05/02 07:24:34;;;;;;;13.67;12.23;;;13.80;99.90;;;;;;5077694;28;20824;-71
2022/05/02 07:27:23;;;;;;;18.30;13.57;;;14.00;99.90;;;;;;5088963;28;20406;-72
2022/05/02 07:29:51;;;;;;;15.73;12.63;;;14.10;99.60;;;;;;5085947;28;20501;-72
2022/05/02 07:32:21;;;;;;;13.87;12.47;;;14.20;99.30;;;;;;5097333;28;20422;-72
2022/05/02 07:34:49;;;;;;;14.00;12.10;;;14.30;99.20;;;;;;5097437;28;20970;-72
2022/05/02 07:37:18;;;;;;;14.63;13.13;;;14.40;98.90;;;;;;5097420;28;20493;-71
2022/05/02 07:39:47;;;;;;;14.50;13.10;;;14.50;98.70;;;;;;5097106;28;20416;-74
2022/05/02 07:42:15;;;;;;;16.67;12.43;;;14.50;98.60;;;;;;5098874;28;20253;-71
2022/05/02 07:44:43;;;;;;;14.07;12.13;;;14.60;98.40;;;;;;5097529;28;21126;-72
2022/05/02 07:47:13;;;;;;;13.30;12.00;;;14.70;98.00;;;;;;5097662;28;20414;-72
2022/05/02 07:49:40;;;;;;;13.00;11.50;;;14.80;97.70;;;;;;5098081;28;20423;-72
2022/05/02 07:52:08;;;;;;;12.97;11.80;;;14.90;97.80;;;;;;5093763;28;20434;-72
2022/05/02 07:54:38;;;;;;;12.83;11.57;;;15.10;97.50;;;;;;5094870;28;21115;-72
2022/05/02 07:57:05;;;;;;;11.83;10.63;;;15.30;97.10;;;;;;5095846;28;20794;-72
2022/05/02 07:59:35;;;;;;;13.83;11.30;;;15.50;96.80;;;;;;5094797;28;20770;-72
2022/05/02 08:02:02;;;;;;;13.33;11.57;;;15.60;96.50;;;;;;5092506;28;20454;-71
2022/05/02 08:04:27;;;;;;;15.90;11.13;;;15.70;96.30;;;;;;5074257;28;20848;-72
2022/05/02 08:07:11;;;;;;;12.23;11.17;;;15.60;96.40;;;;;;5074325;28;20408;-72
2022/05/02 08:10:14;;;;;;;11.90;10.70;;;15.70;96.40;;;;;;5073573;28;20227;-72
2022/05/02 08:12:57;;;;;;;10.60;9.40;;;15.60;96.60;;;;;;5073594;28;20420;-72
2022/05/02 08:15:37;;;;;;;10.33;9.23;;;15.50;96.70;;;;;;5073097;28;20527;-71
2022/05/02 08:18:09;;;;;;;11.60;10.40;;;15.40;96.70;;;;;;5073092;28;20402;-71
2022/05/02 08:20:56;;;;;;;10.50;9.50;;;15.30;97.00;;;;;;5072853;28;20403;-71
2022/05/02 08:30:08;;;;;;;10.60;9.50;;;15.20;97.20;;;;;;5010818;28;20531;-72
2022/05/02 08:32:49;;;;;;;11.30;10.07;;;15.30;97.50;;;;;;5010771;28;20486;-72
2022/05/02 08:35:17;;;;;;;11.00;9.90;;;15.40;97.30;;;;;;5010899;28;20511;-73
2022/05/02 08:38:15;;;;;;;11.43;10.17;;;15.40;97.30;;;;;;5010542;28;20434;-72
2022/05/02 08:40:58;;;;;;;11.83;10.63;;;15.50;97.60;;;;;;5010235;28;20802;-72
2022/05/02 08:43:48;;;;;;;11.30;10.30;;;15.50;97.80;;;;;;5010335;28;20418;-72
2022/05/02 08:46:48;;;;;;;13.30;11.50;;;15.50;97.60;;;;;;5009940;28;20848;-72
2022/05/02 08:49:50;;;;;;;12.00;10.80;;;15.50;97.90;;;;;;5010316;28;20892;-72
2022/05/02 08:52:49;;;;;;;14.47;11.33;;;15.60;97.80;;;;;;5010416;28;20444;-72
2022/05/02 08:55:51;;;;;;;12.43;11.13;;;15.60;97.50;;;;;;5010212;28;20459;-72
2022/05/02 08:58:54;;;;;;;12.27;11.07;;;15.60;97.40;;;;;;5010298;28;20410;-72
2022/05/02 09:01:50;;;;;;;11.37;10.33;;;15.70;97.50;;;;;;5073309;28;20890;-72
2022/05/02 09:04:33;;;;;;;12.33;11.20;;;15.80;97.40;;;;;;5092700;28;20391;-72
2022/05/02 09:07:10;;;;;;;11.97;10.70;;;15.80;97.30;;;;;;5092757;28;20438;-74
2022/05/02 09:10:09;;;;;;;11.63;10.27;;;15.70;97.30;;;;;;5092485;28;20411;-73
2022/05/02 09:12:50;;;;;;;13.57;11.60;;;15.70;97.20;;;;;;5092642;28;20435;-73
2022/05/02 09:15:59;;;;;;;13.07;11.77;;;16.00;97.30;;;;;;5092793;28;20818;-72
2022/05/02 09:18:49;;;;;;;14.20;12.77;;;15.90;97.30;;;;;;5092131;28;20399;-72
2022/05/02 09:21:31;;;;;;;13.13;11.30;;;15.90;97.50;;;;;;5091946;28;20952;-72
2022/05/02 09:24:16;;;;;;;12.57;11.13;;;15.90;97.60;;;;;;5092346;28;20475;-72
2022/05/02 09:27:00;;;;;;;12.47;11.27;;;16.10;97.30;;;;;;5092110;28;20759;-72
2022/05/02 09:29:37;;;;;;;12.73;11.47;;;16.30;96.70;;;;;;5091857;28;20399;-72
2022/05/02 09:32:44;;;;;;;12.60;11.30;;;16.30;96.60;;;;;;5092017;28;20790;-72
2022/05/02 09:35:21;;;;;;;13.90;12.50;;;16.20;96.30;;;;;;5092070;28;20478;-72
2022/05/02 09:38:26;;;;;;;14.27;12.00;;;16.00;96.50;;;;;;5092309;28;20762;-72
2022/05/02 09:41:10;;;;;;;12.93;11.03;;;16.00;96.20;;;;;;5091884;28;20513;-72
2022/05/02 09:49:52;;;;;;;12.70;10.97;;;16.10;96.10;;;;;;5091761;28;20164;-72
2022/05/02 09:52:43;;;;;;;14.33;12.80;;;16.30;96.30;;;;;;5091698;28;20434;-72
2022/05/02 09:58:21;;;;;;;13.67;12.37;;;16.50;96.20;;;;;;5091805;28;20448;-73
2022/05/02 10:01:21;;;;;;;14.77;12.80;;;16.60;95.10;;;;;;5091226;28;20768;-73
2022/05/02 10:04:18;;;;;;;13.97;12.50;;;16.50;95.30;;;;;;5091729;28;20411;-72
2022/05/02 10:06:52;;;;;;;14.07;12.53;;;16.40;95.20;;;;;;5091874;28;20402;-73
2022/05/02 10:09:50;;;;;;;15.70;13.47;;;16.40;95.70;;;;;;5091093;28;20482;-73
2022/05/02 10:12:41;;;;;;;16.83;12.90;;;16.50;95.70;;;;;;5091009;28;21013;-73
2022/05/02 10:15:20;;;;;;;15.33;13.80;;;16.80;95.50;;;;;;5090921;28;20511;-73
2022/05/02 10:18:10;;;;;;;16.80;12.60;;;16.90;95.30;;;;;;5091544;28;20455;-72
2022/05/02 10:21:00;;;;;;;12.83;11.53;;;17.00;95.40;;;;;;5090860;28;20756;-73
2022/05/02 10:23:46;;;;;;;14.00;12.70;;;17.00;94.90;;;;;;5091432;28;20398;-72
2022/05/02 10:26:23;;;;;;;15.23;13.50;;;17.00;95.30;;;;;;5091305;28;20407;-73
2022/05/02 10:28:54;;;;;;;14.60;12.37;;;17.00;94.90;;;;;;5078882;28;20454;-73
2022/05/02 10:31:21;;;;;;;16.20;14.20;;;16.90;94.60;;;;;;5068618;28;20440;-72
2022/05/02 10:33:51;;;;;;;14.40;12.87;;;16.90;94.90;;;;;;5070380;28;20850;-73
2022/05/02 10:36:27;;;;;;;13.20;11.90;;;16.90;95.10;;;;;;5069072;28;20562;-72
2022/05/02 10:38:55;;;;;;;14.90;11.73;;;16.90;94.70;;;;;;5069673;28;20438;-71
2022/05/02 10:41:29;;;;;;;12.67;11.43;;;17.00;94.80;;;;;;5069268;28;20451;-72
2022/05/02 10:44:03;;;;;;;13.30;11.90;;;17.10;94.40;;;;;;5069552;28;20868;-71
2022/05/02 10:46:31;;;;;;;12.97;11.70;;;17.00;94.50;;;;;;5086890;28;20470;-70
2022/05/02 10:49:12;;;;;;;13.27;12.05;;;17.10;94.70;;;;;;5087233;28;20424;-72
2022/05/02 10:51:45;;;;;;;12.33;11.03;;;17.20;94.70;;;;;;5089461;28;20220;-72
2022/05/02 10:54:14;;;;;;;14.30;12.83;;;17.20;94.10;;;;;;5089702;28;20483;-72
2022/05/02 10:56:43;;;;;;;14.00;12.27;;;17.00;94.00;;;;;;5089998;28;20466;-72
2022/05/02 10:59:12;;;;;;;13.73;12.40;;;16.90;94.50;;;;;;5088930;28;20905;-71
2022/05/02 11:02:13;;;;;;;17.13;12.83;;;16.80;94.60;;;;;;5089799;28;20451;-72
2022/05/02 11:05:10;;;;;;;13.40;12.17;;;16.80;94.70;;;;;;5090317;28;20426;-72
2022/05/02 11:07:46;;;;;;;12.87;11.57;;;16.90;94.70;;;;;;5091083;28;20446;-72
2022/05/02 11:10:17;;;;;;;16.63;12.00;;;17.00;94.70;;;;;;5090400;28;20442;-72
2022/05/02 11:12:59;;;;;;;11.93;10.83;;;17.10;94.50;;;;;;5090827;28;20423;-72
2022/05/02 11:15:25;;;;;;;12.73;11.30;;;17.20;94.20;;;;;;5090838;28;20478;-72
2022/05/02 11:20:41;;;;;;;12.73;11.53;;;17.40;94.10;;;;;;5090909;28;20406;-73
2022/05/02 11:21:09;;;;;;;12.03;10.83;;;17.50;93.80;;;;;;5090359;28;20846;-72
2022/05/02 11:23:50;;;;;;;11.27;10.20;;;17.80;93.30;;;;;;5091100;28;20798;-72
2022/05/02 11:26:33;;;;;;;13.40;12.10;;;17.70;93.00;;;;;;5092262;28;20505;-72
2022/05/02 11:29:44;;;;;;;13.80;12.40;;;17.70;93.00;;;;;;5094295;28;20418;-72
2022/05/02 11:32:22;;;;;;;14.27;12.20;;;17.60;92.90;;;;;;5099657;28;20462;-72
2022/05/02 11:35:11;;;;;;;12.43;11.33;;;17.40;93.00;;;;;;5099659;28;20442;-72
2022/05/02 11:38:26;;;;;;;14.73;12.93;;;17.50;93.30;;;;;;5095190;28;20506;-72
2022/05/02 11:41:04;;;;;;;13.57;11.87;;;17.40;93.30;;;;;;5011357;28;20468;-72
2022/05/02 11:43:34;;;;;;;15.43;12.50;;;17.50;93.50;;;;;;5012042;28;20460;-72
2022/05/02 11:46:13;;;;;;;14.37;12.70;;;17.50;93.10;;;;;;5012088;28;20419;-71
2022/05/02 11:49:10;;;;;;;13.73;11.60;;;17.50;93.20;;;;;;5011965;28;20417;-72
2022/05/02 11:51:43;;;;;;;13.77;12.47;;;17.50;93.00;;;;;;5012074;28;20517;-72
2022/05/02 11:54:27;;;;;;;13.47;12.07;;;17.50;93.00;;;;;;5012428;28;20860;-72
2022/05/02 11:56:58;;;;;;;14.23;12.97;;;17.60;92.60;;;;;;5012093;28;20509;-72
2022/05/02 11:59:58;;;;;;;15.83;13.30;;;17.60;92.50;;;;;;5012001;28;20414;-72
2022/05/02 12:02:38;;;;;;;13.40;12.20;;;17.70;92.60;;;;;;4977342;28;20923;-72
2022/05/02 12:05:06;;;;;;;12.60;11.40;;;17.60;92.70;;;;;;5008648;28;20447;-72
2022/05/02 12:07:33;;;;;;;14.17;12.80;;;17.70;92.70;;;;;;5011947;28;20419;-72
2022/05/02 12:10:09;;;;;;;12.17;11.07;;;17.60;93.00;;;;;;5011323;28;20415;-70
2022/05/02 12:12:36;;;;;;;14.53;13.10;;;17.80;92.70;;;;;;5001673;28;20431;-73
2022/05/02 12:15:12;;;;;;;14.13;12.93;;;17.80;92.10;;;;;;5000099;28;20455;-72
2022/05/02 12:18:08;;;;;;;13.23;11.93;;;17.90;92.00;;;;;;5040730;28;20820;-73
2022/05/02 12:20:36;;;;;;;14.13;12.80;;;18.00;92.40;;;;;;5061229;28;20419;-72
2022/05/02 12:23:06;;;;;;;13.27;12.10;;;18.00;91.70;;;;;;5073971;28;20411;-73
2022/05/02 12:25:33;;;;;;;14.67;13.37;;;18.20;91.80;;;;;;5075418;28;20640;-72
2022/05/02 12:28:03;;;;;;;15.70;14.07;;;18.10;91.80;;;;;;5073547;28;20412;-73
2022/05/02 12:30:30;;;;;;;14.50;13.03;;;18.10;92.00;;;;;;5073329;28;20449;-72
2022/05/02 12:33:15;;;;;;;15.10;13.60;;;18.00;92.10;;;;;;5071862;28;20431;-73
2022/05/02 12:35:42;;;;;;;14.77;13.37;;;18.00;92.10;;;;;;5073379;28;20545;-73
2022/05/02 12:38:14;;;;;;;14.73;13.23;;;18.20;92.20;;;;;;5072780;28;20414;-73
2022/05/02 12:40:41;;;;;;;16.33;13.13;;;18.30;92.00;;;;;;5072583;28;20481;-73
2022/05/02 12:43:10;;;;;;;14.30;12.20;;;18.40;92.00;;;;;;5072860;28;20426;-73
2022/05/02 12:45:47;;;;;;;16.63;12.77;;;18.60;91.90;;;;;;5072718;28;20451;-72
2022/05/02 12:48:21;;;;;;;13.90;12.50;;;18.70;91.30;;;;;;5072786;28;20568;-72
2022/05/02 12:50:48;;;;;;;15.90;14.50;;;18.70;91.20;;;;;;5072685;28;20404;-72
2022/05/02 12:56:09;;;;;;;15.30;13.90;;;18.50;91.20;;;;;;5072381;28;20485;-73
2022/05/02 13:01:24;;;;;;;15.23;13.67;;;18.40;90.90;;;;;;5084694;28;20986;-72
2022/05/02 13:03:58;;;;;;;14.40;13.10;;;18.50;90.60;;;;;;5096200;28;20402;-72
2022/05/02 13:06:25;;;;;;;14.47;13.07;;;18.60;90.40;;;;;;5094583;28;20415;-72
2022/05/02 13:09:05;;;;;;;14.37;13.07;;;18.70;90.10;;;;;;5092661;28;20828;-72
2022/05/02 13:11:36;;;;;;;13.60;12.30;;;18.70;90.00;;;;;;5092503;28;20506;-72
2022/05/02 13:14:03;;;;;;;13.87;12.57;;;18.90;90.10;;;;;;5093156;28;20410;-73
2022/05/02 13:16:44;;;;;;;13.57;12.20;;;18.90;89.20;;;;;;5092847;28;20450;-73
2022/05/02 13:19:10;;;;;;;14.50;13.13;;;18.90;89.60;;;;;;5091972;28;20391;-72
2022/05/02 13:21:37;;;;;;;12.23;11.13;;;18.80;88.40;;;;;;5083589;28;20458;-73
2022/05/02 13:24:12;;;;;;;11.73;10.73;;;19.00;89.00;;;;;;5088872;28;20399;-73
2022/05/02 13:26:47;;;;;;;11.90;10.90;;;19.20;88.60;;;;;;5088217;28;20442;-73
2022/05/02 13:29:32;;;;;;;14.10;12.80;;;19.50;88.00;;;;;;5088319;28;20406;-73
2022/05/02 13:32:03;;;;;;;11.83;10.63;;;19.50;85.70;;;;;;5092704;28;20430;-73
2022/05/02 13:35:00;;;;;;;11.90;10.90;;;19.70;86.20;;;;;;5090795;28;20496;-73
2022/05/02 13:37:38;;;;;;;13.30;12.17;;;19.70;85.70;;;;;;5076550;28;20419;-74